Dati Storici

Data ora Umidita' aria (%) Temperatura aria (°C) Rad globale (W/m²) Gonioanemometro (°) Tacoanemometro (m/s) Pioggia (mm)
30-06-2020 14:50 61.5 % 29.108 -52.939 0.729 0 0
30-06-2020 14:40 60.8 % 28.948 -60.516 2.082 0 0
30-06-2020 14:30 61.7 % 29.638 -60.484 0.822 0 0
30-06-2020 14:20 61 % 28.852 -60.156 2.498 0 0
30-06-2020 14:10 61.8 % 29.279 -60.592 2.54 0 0
30-06-2020 14:00 61.2 % 28.924 -51.976 2.167 0 0
30-06-2020 13:50 61.5 % 28.786 -67.119 2.229 0 0
30-06-2020 13:40 61.3 % 28.769 -76.012 1.678 0 0
30-06-2020 13:30 61.1 % 28.364 -59.512 2.196 0 0
30-06-2020 13:20 59.5 % 29.395 -70.976 3.27 0 0
30-06-2020 13:10 60.3 % 28.777 -59.276 2.553 0 0
30-06-2020 13:00 60.2 % 29.136 -61.4 3.533 0 0
30-06-2020 12:50 61.3 % 28.749 -30.19 1.575 0 0
30-06-2020 12:40 60.7 % 28.59 -43.976 1.82 0 0
30-06-2020 12:30 60.7 % 28.668 -50.83 2.638 0 0
30-06-2020 12:20 59.7 % 28.697 -80.595 0.939 0 0
30-06-2020 12:10 59.4 % 28.522 -81.635 2.235 0 0
30-06-2020 12:00 59.4 % 28.418 -77.912 1.939 0 0
30-06-2020 11:50 58.7 % 28.912 -85.507 4.085 0 0
30-06-2020 11:40 59.4 % 28.647 -59.147 4.145 0 0

I dati sono presentati in modo automatico a scopo informativo. In seguito a verifica i dati possono subire modifiche o essere invalidati e non riportati negli archivi definitivi.